createdAt,value
2018-09-15T00:00:24.591Z,11.03
2018-09-15T00:02:51.675Z,10.93
2018-09-15T00:05:19.069Z,9.77
2018-09-15T00:07:47.275Z,7.90
2018-09-15T00:10:14.224Z,8.07
2018-09-15T00:12:41.362Z,8.23
2018-09-15T00:15:09.728Z,7.90
2018-09-15T00:17:37.038Z,8.10
2018-09-15T00:20:04.689Z,6.73
2018-09-15T00:22:31.750Z,7.10
2018-09-15T00:24:58.035Z,7.60
2018-09-15T00:27:25.019Z,7.13
2018-09-15T00:29:51.304Z,7.90
2018-09-15T00:32:18.298Z,8.10
2018-09-15T00:34:44.587Z,9.47
2018-09-15T00:37:11.587Z,7.17
2018-09-15T00:39:37.870Z,7.80
2018-09-15T00:42:04.858Z,7.80
2018-09-15T00:44:31.129Z,7.80
2018-09-15T00:46:57.393Z,7.03
2018-09-15T00:49:23.641Z,8.57
2018-09-15T00:51:49.926Z,8.37
2018-09-15T00:54:16.907Z,8.60
2018-09-15T00:56:43.177Z,10.20
2018-09-15T00:59:09.432Z,7.43
2018-09-15T01:01:36.450Z,8.50
2018-09-15T01:04:02.733Z,9.10
2018-09-15T01:06:29.039Z,7.10
2018-09-15T01:08:55.273Z,8.03
2018-09-15T01:11:22.277Z,8.27
2018-09-15T01:13:48.550Z,7.93
2018-09-15T01:16:15.629Z,8.70
2018-09-15T01:18:41.900Z,8.20
2018-09-15T01:21:08.142Z,8.67
2018-09-15T01:23:34.418Z,8.33
2018-09-15T01:26:00.708Z,7.80
2018-09-15T01:28:26.945Z,8.60
2018-09-15T01:30:53.226Z,8.60
2018-09-15T01:33:19.502Z,8.70
2018-09-15T01:35:45.798Z,8.33
2018-09-15T01:38:12.039Z,8.87
2018-09-15T01:40:38.321Z,9.37
2018-09-15T01:43:04.601Z,9.37
2018-09-15T01:45:30.897Z,9.03
2018-09-15T01:47:57.175Z,9.70
2018-09-15T01:50:23.444Z,9.40
2018-09-15T01:52:50.424Z,8.83
2018-09-15T01:55:16.699Z,8.50
2018-09-15T01:57:42.976Z,8.03
2018-09-15T02:00:09.246Z,9.40
2018-09-15T02:02:35.522Z,8.77
2018-09-15T02:05:01.772Z,9.60
2018-09-15T02:07:28.058Z,8.23
2018-09-15T02:09:55.049Z,8.77
2018-09-15T02:12:21.331Z,9.63
2018-09-15T02:14:47.574Z,8.57
2018-09-15T02:17:13.838Z,8.90
2018-09-15T02:19:40.114Z,9.60
2018-09-15T02:22:06.407Z,8.50
2018-09-15T02:24:32.657Z,10.00
2018-09-15T02:26:58.978Z,8.77
2018-09-15T02:29:25.248Z,8.07
2018-09-15T02:31:52.255Z,8.60
2018-09-15T02:34:18.530Z,8.43
2018-09-15T02:36:45.545Z,9.73
2018-09-15T02:39:11.843Z,9.00
2018-09-15T02:41:38.130Z,8.13
2018-09-15T02:44:04.456Z,12.23
2018-09-15T02:46:30.706Z,8.70
2018-09-15T02:48:57.738Z,8.80
2018-09-15T02:51:23.986Z,10.17
2018-09-15T02:53:51.040Z,9.43
2018-09-15T02:56:18.028Z,9.50
2018-09-15T02:58:44.298Z,10.03
2018-09-15T03:01:10.549Z,9.60
2018-09-15T03:03:37.577Z,8.50
2018-09-15T03:06:03.834Z,8.00
2018-09-15T03:08:30.088Z,9.40
2018-09-15T03:10:56.413Z,8.90
2018-09-15T03:13:22.667Z,9.77
2018-09-15T03:15:48.953Z,8.80
2018-09-15T03:18:15.191Z,9.30
2018-09-15T03:20:41.465Z,8.93
2018-09-15T03:23:07.739Z,8.53
2018-09-15T03:25:34.019Z,8.43
2018-09-15T03:28:00.302Z,9.20
2018-09-15T03:30:26.546Z,8.70
2018-09-15T03:32:52.874Z,10.10
2018-09-15T03:35:19.195Z,9.13
2018-09-15T03:37:45.486Z,9.07
2018-09-15T03:40:11.793Z,9.27
2018-09-15T03:42:38.056Z,10.20
2018-09-15T03:45:04.382Z,9.77
2018-09-15T03:47:30.629Z,9.50
2018-09-15T03:49:57.645Z,11.00
2018-09-15T03:52:23.918Z,11.50
2018-09-15T03:54:50.937Z,11.93
2018-09-15T03:57:17.182Z,13.60
2018-09-15T03:59:44.238Z,12.90
2018-09-15T04:02:11.254Z,13.10
2018-09-15T04:04:37.520Z,11.43
2018-09-15T04:07:03.886Z,12.07
2018-09-15T04:09:30.550Z,12.63
2018-09-15T04:11:56.833Z,12.67
2018-09-15T04:14:23.089Z,12.33
2018-09-15T04:16:49.389Z,12.17
2018-09-15T04:19:16.572Z,11.30
2018-09-15T04:21:42.832Z,12.47
2018-09-15T04:24:09.886Z,11.50
2018-09-15T04:26:41.069Z,11.87
2018-09-15T04:29:07.614Z,9.30
2018-09-15T04:31:33.965Z,15.23
2018-09-15T04:34:01.070Z,11.00
2018-09-15T04:36:27.408Z,10.23
2018-09-15T04:38:54.511Z,10.50
2018-09-15T04:41:20.940Z,10.07
2018-09-15T04:43:48.055Z,9.63
2018-09-15T04:46:14.454Z,9.87
2018-09-15T04:48:40.742Z,10.00
2018-09-15T04:51:06.982Z,9.23
2018-09-15T04:53:33.261Z,10.17
2018-09-15T04:55:59.611Z,9.40
2018-09-15T04:58:25.926Z,9.57
2018-09-15T05:00:52.227Z,9.67
2018-09-15T05:03:19.750Z,11.53
2018-09-15T05:05:46.030Z,10.17
2018-09-15T05:08:13.846Z,10.50
2018-09-15T05:10:40.758Z,9.70
2018-09-15T05:13:08.620Z,13.77
2018-09-15T05:15:36.386Z,10.73
2018-09-15T05:18:04.771Z,12.73
2018-09-15T05:20:33.645Z,13.57
2018-09-15T05:23:02.049Z,12.60
2018-09-15T05:25:30.871Z,12.40
2018-09-15T05:27:57.624Z,13.03
2018-09-15T05:30:25.578Z,12.30
2018-09-15T05:32:54.001Z,12.53
2018-09-15T05:35:20.290Z,14.10
2018-09-15T05:37:46.541Z,13.33
2018-09-15T05:40:12.825Z,11.63
2018-09-15T05:42:39.867Z,12.47
2018-09-15T05:45:06.151Z,12.03
2018-09-15T05:47:32.437Z,12.97
2018-09-15T05:49:58.681Z,12.63
2018-09-15T05:52:24.961Z,12.27
2018-09-15T05:54:51.618Z,13.33
2018-09-15T05:57:19.165Z,12.70
2018-09-15T05:59:45.462Z,11.47
2018-09-15T06:02:11.734Z,15.33
2018-09-15T06:04:38.013Z,11.93
2018-09-15T06:07:04.286Z,11.17
2018-09-15T06:09:31.160Z,10.40
2018-09-15T06:11:57.432Z,12.57
2018-09-15T06:14:23.717Z,11.43
2018-09-15T06:16:49.945Z,10.87
2018-09-15T06:19:16.237Z,11.80
2018-09-15T06:21:49.328Z,11.63
2018-09-15T06:24:18.500Z,12.20
2018-09-15T06:26:44.908Z,10.70
2018-09-15T06:29:11.946Z,11.00
2018-09-15T06:31:38.214Z,11.80
2018-09-15T06:34:04.537Z,11.07
2018-09-15T06:36:30.781Z,11.20
2018-09-15T06:38:57.124Z,11.30
2018-09-15T06:41:23.401Z,12.30
2018-09-15T06:43:49.690Z,10.20
2018-09-15T06:46:15.937Z,11.03
2018-09-15T06:48:42.167Z,11.03
2018-09-15T06:51:08.458Z,11.97
2018-09-15T06:53:34.742Z,11.37
2018-09-15T06:56:01.054Z,10.43
2018-09-15T06:58:27.389Z,10.50
2018-09-15T07:00:55.396Z,10.30
2018-09-15T07:03:23.288Z,10.90
2018-09-15T07:05:51.476Z,10.57
2018-09-15T07:08:18.415Z,12.17
2018-09-15T07:10:44.766Z,10.23
2018-09-15T07:13:11.023Z,11.43
2018-09-15T07:15:38.689Z,10.13
2018-09-15T07:18:07.594Z,8.93
2018-09-15T07:20:34.755Z,9.53
2018-09-15T07:23:01.082Z,7.97
2018-09-15T07:25:29.150Z,8.70
2018-09-15T07:27:56.943Z,10.43
2018-09-15T07:30:25.768Z,8.50
2018-09-15T07:32:53.595Z,7.90
2018-09-15T07:35:19.854Z,8.47
2018-09-15T07:37:46.151Z,10.07
2018-09-15T07:40:12.432Z,9.60
2018-09-15T07:42:38.721Z,8.63
2018-09-15T07:45:05.010Z,8.10
2018-09-15T07:47:31.438Z,8.30
2018-09-15T07:49:57.710Z,11.70
2018-09-15T07:52:25.583Z,10.03
2018-09-15T07:54:53.461Z,8.83
2018-09-15T07:57:19.806Z,10.90
2018-09-15T07:59:46.054Z,9.37
2018-09-15T08:02:12.380Z,8.60
2018-09-15T08:04:38.765Z,8.23
2018-09-15T08:07:06.291Z,8.37
2018-09-15T08:09:32.575Z,10.03
2018-09-15T08:11:59.452Z,9.00
2018-09-15T08:14:25.769Z,9.83
2018-09-15T08:16:52.023Z,8.93
2018-09-15T08:19:19.107Z,9.63
2018-09-15T08:21:45.746Z,9.10
2018-09-15T08:24:12.798Z,8.10
2018-09-15T08:26:40.211Z,9.23
2018-09-15T08:29:06.579Z,8.43
2018-09-15T08:31:32.859Z,8.00
2018-09-15T08:33:59.123Z,8.43
2018-09-15T08:36:25.441Z,7.27
2018-09-15T08:38:51.689Z,8.10
2018-09-15T08:41:19.707Z,9.33
2018-09-15T08:43:45.941Z,8.53
2018-09-15T08:46:12.203Z,8.37
2018-09-15T08:48:38.449Z,7.87
2018-09-15T08:51:04.742Z,11.20
2018-09-15T08:53:30.974Z,7.57
2018-09-15T08:55:57.261Z,8.10
2018-09-15T08:58:24.280Z,6.87
2018-09-15T09:00:50.575Z,7.33
2018-09-15T09:03:16.854Z,8.70
2018-09-15T09:05:43.133Z,7.47
2018-09-15T09:08:09.425Z,8.10
2018-09-15T09:10:35.669Z,7.33
2018-09-15T09:13:02.698Z,7.47
2018-09-15T09:15:28.962Z,12.33
2018-09-15T09:17:55.266Z,6.87
2018-09-15T09:20:21.711Z,7.63
2018-09-15T09:22:47.982Z,6.40
2018-09-15T09:25:14.220Z,7.67
2018-09-15T09:27:40.507Z,6.97
2018-09-15T09:30:07.536Z,7.10
2018-09-15T09:32:33.782Z,8.13
2018-09-15T09:35:00.817Z,7.10
2018-09-15T09:37:27.054Z,6.70
2018-09-15T09:39:54.079Z,7.20
2018-09-15T09:42:20.400Z,6.43
2018-09-15T09:44:46.640Z,5.83
2018-09-15T09:47:12.918Z,6.00
2018-09-15T09:49:39.196Z,6.13
2018-09-15T09:52:05.502Z,5.70
2018-09-15T09:54:32.013Z,6.93
2018-09-15T09:56:58.540Z,4.50
2018-09-15T09:59:24.778Z,5.13
2018-09-15T10:01:51.080Z,5.30
2018-09-15T10:04:18.077Z,4.03
2018-09-15T10:06:44.589Z,4.37
2018-09-15T10:09:10.828Z,5.67
2018-09-15T10:11:37.172Z,9.87
2018-09-15T10:14:03.742Z,7.50
2018-09-15T10:16:30.041Z,4.97
2018-09-15T10:18:56.326Z,5.80
2018-09-15T10:21:22.583Z,9.10
2018-09-15T10:23:49.151Z,6.20
2018-09-15T10:26:15.576Z,5.67
2018-09-15T10:28:43.598Z,7.10
2018-09-15T10:31:10.625Z,5.17
2018-09-15T10:33:37.042Z,5.23
2018-09-15T10:36:03.325Z,4.90
2018-09-15T10:38:30.483Z,5.17
2018-09-15T10:40:56.786Z,5.10
2018-09-15T10:43:23.088Z,4.40
2018-09-15T10:45:49.430Z,4.30
2018-09-15T10:48:15.722Z,3.27
2018-09-15T10:50:42.069Z,4.40
2018-09-15T10:53:08.359Z,11.60
2018-09-15T10:55:35.377Z,5.63
2018-09-15T10:58:02.052Z,5.43
2018-09-15T11:00:29.723Z,3.60
2018-09-15T11:02:57.195Z,3.47
2018-09-15T11:05:24.797Z,2.80
2018-09-15T11:07:51.162Z,4.10
2018-09-15T11:10:20.567Z,3.07
2018-09-15T11:12:47.588Z,4.40
2018-09-15T11:15:16.741Z,12.83
2018-09-15T11:17:46.220Z,4.30
2018-09-15T11:22:53.485Z,3.90
2018-09-15T11:25:19.983Z,11.57
2018-09-15T11:27:46.284Z,4.50
2018-09-15T11:30:14.559Z,5.43
2018-09-15T11:32:40.922Z,4.20
2018-09-15T11:35:07.225Z,8.07
2018-09-15T11:37:33.488Z,2.73
2018-09-15T11:39:59.774Z,1.80
2018-09-15T11:42:26.044Z,2.30
2018-09-15T11:44:52.360Z,3.30
2018-09-15T11:47:23.999Z,1.67
2018-09-15T11:49:50.352Z,1.97
2018-09-15T11:52:17.073Z,1.80
2018-09-15T11:54:44.107Z,5.73
2018-09-15T11:57:10.427Z,7.30
2018-09-15T11:59:36.674Z,1.50
2018-09-15T12:02:05.292Z,2.67
2018-09-15T12:04:32.192Z,1.87
2018-09-15T12:06:58.502Z,3.00
2018-09-15T12:09:24.761Z,2.67
2018-09-15T12:11:51.036Z,1.93
2018-09-15T12:14:17.429Z,1.50
2018-09-15T12:16:44.371Z,2.60
2018-09-15T12:19:10.855Z,1.60
2018-09-15T12:21:37.827Z,2.83
2018-09-15T12:24:04.124Z,1.40
2018-09-15T12:26:30.420Z,2.40
2018-09-15T12:28:56.695Z,1.50
2018-09-15T12:31:22.997Z,4.13
2018-09-15T12:33:51.447Z,3.10
2018-09-15T12:36:19.407Z,3.00
2018-09-15T12:38:46.797Z,1.50
2018-09-15T12:41:13.146Z,3.90
2018-09-15T12:43:40.257Z,2.60
2018-09-15T12:46:07.948Z,2.87
2018-09-15T12:48:34.314Z,1.33
2018-09-15T12:51:00.583Z,2.30
2018-09-15T12:53:26.846Z,1.23
2018-09-15T12:55:53.844Z,1.47
2018-09-15T13:00:59.683Z,2.93
2018-09-15T13:03:31.999Z,1.37
2018-09-15T13:06:03.642Z,1.53
2018-09-15T13:08:34.234Z,1.33
2018-09-15T13:11:03.284Z,3.27
2018-09-15T13:13:32.126Z,1.60
2018-09-15T13:15:59.917Z,1.60
2018-09-15T13:18:33.286Z,1.80
2018-09-15T13:21:01.012Z,2.57
2018-09-15T13:23:39.382Z,1.23
2018-09-15T13:26:12.738Z,0.90
2018-09-15T13:28:42.737Z,1.20
2018-09-15T13:31:15.248Z,1.90
2018-09-15T13:33:52.369Z,2.30
2018-09-15T13:39:06.163Z,1.53
2018-09-15T13:41:39.536Z,3.50
2018-09-15T13:44:06.643Z,1.57
2018-09-15T13:46:32.948Z,1.20
2018-09-15T13:49:00.038Z,1.83
2018-09-15T13:51:26.364Z,5.07
2018-09-15T13:53:54.009Z,1.93
2018-09-15T13:56:20.683Z,1.67
2018-09-15T13:58:47.023Z,1.40
2018-09-15T14:01:13.276Z,1.43
2018-09-15T14:03:39.544Z,1.57
2018-09-15T14:06:05.786Z,2.10
2018-09-15T14:08:32.803Z,3.50
2018-09-15T14:10:59.062Z,1.37
2018-09-15T14:13:25.352Z,3.73
2018-09-15T14:15:51.700Z,1.50
2018-09-15T14:18:17.981Z,1.67
2018-09-15T14:20:44.266Z,1.53
2018-09-15T14:23:10.515Z,1.30
2018-09-15T14:25:39.146Z,2.00
2018-09-15T14:28:09.239Z,2.40
2018-09-15T14:30:35.562Z,1.33
2018-09-15T14:33:03.144Z,1.10
2018-09-15T14:35:29.539Z,0.93
2018-09-15T14:37:55.794Z,1.83
2018-09-15T14:40:22.700Z,1.70
2018-09-15T14:42:49.057Z,1.33
2018-09-15T14:45:16.092Z,2.97
2018-09-15T14:47:42.824Z,1.20
2018-09-15T14:50:10.146Z,1.13
2018-09-15T14:52:40.489Z,4.17
2018-09-15T14:55:06.839Z,1.73
2018-09-15T14:57:33.093Z,2.20
2018-09-15T15:00:00.897Z,1.73
2018-09-15T15:02:28.669Z,1.43
2018-09-15T15:04:56.936Z,0.80
2018-09-15T15:07:24.039Z,1.77
2018-09-15T15:09:52.147Z,1.30
2018-09-15T15:12:19.959Z,1.47
2018-09-15T15:14:48.733Z,1.47
2018-09-15T15:17:15.068Z,2.07
2018-09-15T15:19:41.848Z,3.43
2018-09-15T15:22:09.033Z,2.13
2018-09-15T15:24:35.344Z,1.73
2018-09-15T15:27:04.129Z,5.13
2018-09-15T15:29:30.377Z,1.37
2018-09-15T15:31:56.717Z,1.20
2018-09-15T15:34:23.017Z,1.30
2018-09-15T15:36:51.754Z,1.13
2018-09-15T15:39:18.137Z,1.60
2018-09-15T15:41:47.119Z,1.77
2018-09-15T15:44:14.338Z,1.40
2018-09-15T15:46:41.335Z,1.20
2018-09-15T15:49:08.639Z,2.70
2018-09-15T15:51:35.335Z,4.93
2018-09-15T15:54:03.325Z,2.03
2018-09-15T15:56:29.753Z,1.90
2018-09-15T15:58:57.606Z,2.80
2018-09-15T16:01:24.786Z,1.83
2018-09-15T16:03:51.096Z,5.30
2018-09-15T16:06:17.384Z,2.10
2018-09-15T16:08:43.662Z,1.50
2018-09-15T16:11:10.996Z,2.80
2018-09-15T16:13:37.254Z,1.47
2018-09-15T16:16:08.478Z,1.80
2018-09-15T16:18:35.130Z,1.87
2018-09-15T16:21:01.406Z,1.43
2018-09-15T16:23:31.552Z,1.43
2018-09-15T16:25:58.090Z,1.30
2018-09-15T16:28:24.908Z,1.40
2018-09-15T16:30:51.169Z,2.30
2018-09-15T16:33:19.519Z,2.87
2018-09-15T16:35:45.854Z,2.10
2018-09-15T16:38:13.108Z,1.70
2018-09-15T16:40:39.543Z,3.83
2018-09-15T16:43:05.806Z,2.07
2018-09-15T16:45:33.761Z,1.70
2018-09-15T16:48:03.340Z,2.13
2018-09-15T16:50:29.633Z,1.30
2018-09-15T16:52:56.304Z,3.23
2018-09-15T16:55:27.262Z,2.03
2018-09-15T16:58:00.086Z,5.40
2018-09-15T17:00:26.489Z,1.90
2018-09-15T17:02:53.536Z,1.73
2018-09-15T17:05:21.995Z,2.23
2018-09-15T17:07:52.565Z,1.43
2018-09-15T17:10:31.837Z,2.00
2018-09-15T17:13:05.980Z,4.40
2018-09-15T17:15:41.185Z,2.33
2018-09-15T17:18:11.002Z,3.50
2018-09-15T17:20:44.906Z,3.03
2018-09-15T17:25:50.275Z,2.93
2018-09-15T17:28:25.727Z,2.67
2018-09-15T17:33:51.565Z,3.50
2018-09-15T17:36:22.072Z,3.70
2018-09-15T17:38:59.724Z,8.83
2018-09-15T17:41:30.247Z,2.53
2018-09-15T17:44:00.405Z,3.10
2018-09-15T17:46:33.318Z,2.17
2018-09-15T17:54:28.685Z,5.20
2018-09-15T17:56:59.066Z,2.70
2018-09-15T17:59:36.481Z,2.80
2018-09-15T18:02:09.765Z,2.17
2018-09-15T18:04:38.987Z,2.60
2018-09-15T18:07:14.113Z,1.97
2018-09-15T18:12:20.351Z,5.20
2018-09-15T18:14:54.560Z,1.90
2018-09-15T18:17:33.464Z,6.40
2018-09-15T18:20:06.723Z,3.20
2018-09-15T18:22:37.035Z,4.90
2018-09-15T18:25:09.716Z,1.70
2018-09-15T18:27:38.715Z,2.90
2018-09-15T18:32:46.027Z,3.87
2018-09-15T18:35:19.985Z,2.60
2018-09-15T18:37:52.683Z,2.77
2018-09-15T18:40:27.397Z,3.77
2018-09-15T18:43:06.650Z,4.10
2018-09-15T18:45:46.488Z,5.67
2018-09-15T18:48:20.933Z,4.37
2018-09-15T18:50:51.639Z,3.77
2018-09-15T18:53:25.050Z,7.50
2018-09-15T18:56:00.773Z,6.03
2018-09-15T18:58:30.368Z,11.00
2018-09-15T19:01:06.096Z,8.90
2018-09-15T19:03:38.753Z,10.97
2018-09-15T19:08:46.672Z,7.27
2018-09-15T19:11:17.582Z,8.53
2018-09-15T19:13:49.718Z,6.43
2018-09-15T19:16:20.674Z,5.00
2018-09-15T19:18:56.182Z,3.87
2018-09-15T19:21:30.544Z,5.90
2018-09-15T19:31:55.833Z,7.30
2018-09-15T19:37:14.723Z,3.73
2018-09-15T19:42:29.055Z,3.10
2018-09-15T19:45:01.403Z,3.23
2018-09-15T19:47:32.383Z,7.80
2018-09-15T19:50:06.930Z,3.60
2018-09-15T19:52:38.919Z,3.23
2018-09-15T19:57:52.473Z,3.10
2018-09-15T20:00:18.838Z,4.57
2018-09-15T20:02:45.119Z,6.43
2018-09-15T20:05:11.414Z,3.50
2018-09-15T20:07:38.452Z,3.80
2018-09-15T20:10:04.720Z,4.50
2018-09-15T20:12:30.997Z,5.73
2018-09-15T20:14:57.389Z,4.40
2018-09-15T20:17:23.468Z,4.43
2018-09-15T20:19:49.562Z,6.47
2018-09-15T20:22:15.814Z,4.50
2018-09-15T20:24:42.849Z,4.10
2018-09-15T20:27:09.134Z,8.07
2018-09-15T20:29:35.506Z,3.23
2018-09-15T20:32:01.862Z,3.67
2018-09-15T20:34:28.115Z,3.10
2018-09-15T20:36:54.390Z,3.00
2018-09-15T20:39:20.809Z,4.60
2018-09-15T20:41:47.078Z,4.87
2018-09-15T20:44:14.090Z,4.00
2018-09-15T20:46:40.341Z,7.93
2018-09-15T20:49:06.837Z,3.97
2018-09-15T20:51:33.113Z,3.07
2018-09-15T20:54:00.162Z,3.17
2018-09-15T20:56:27.177Z,5.20
2018-09-15T20:58:53.483Z,3.30
2018-09-15T21:01:19.744Z,3.37
2018-09-15T21:03:45.992Z,3.30
2018-09-15T21:06:12.261Z,3.90
2018-09-15T21:08:38.506Z,4.47
2018-09-15T21:11:05.129Z,4.37
2018-09-15T21:13:32.164Z,5.13
2018-09-15T21:15:59.283Z,4.67
2018-09-15T21:18:25.514Z,3.70
2018-09-15T21:20:51.747Z,4.20
2018-09-15T21:23:18.020Z,3.20
2018-09-15T21:25:44.349Z,3.47
2018-09-15T21:28:10.585Z,3.83
2018-09-15T21:30:36.861Z,4.47
2018-09-15T21:33:03.125Z,3.90
2018-09-15T21:35:30.159Z,3.93
2018-09-15T21:37:57.016Z,15.63
2018-09-15T21:40:24.009Z,9.07
2018-09-15T21:42:51.758Z,7.17
2018-09-15T21:45:18.223Z,6.57
2018-09-15T21:47:46.125Z,6.33
2018-09-15T21:50:13.790Z,6.10
2018-09-15T21:52:40.150Z,4.30
2018-09-15T21:55:07.210Z,3.97
2018-09-15T21:57:33.510Z,4.77
2018-09-15T22:00:00.560Z,6.70
2018-09-15T22:02:27.581Z,3.90
2018-09-15T22:04:53.887Z,5.17
2018-09-15T22:07:20.158Z,4.50
2018-09-15T22:09:46.420Z,7.27
2018-09-15T22:12:12.709Z,4.57
2018-09-15T22:14:38.943Z,4.80
2018-09-15T22:17:05.277Z,6.43
2018-09-15T22:19:31.541Z,4.90
2018-09-15T22:21:57.851Z,5.37
2018-09-15T22:24:24.833Z,5.67
2018-09-15T22:26:51.146Z,4.67
2018-09-15T22:29:17.382Z,4.97
2018-09-15T22:31:43.655Z,4.90
2018-09-15T22:34:09.931Z,5.60
2018-09-15T22:36:36.177Z,5.90
2018-09-15T22:39:02.481Z,5.23
2018-09-15T22:41:28.761Z,4.73
2018-09-15T22:43:55.069Z,4.07
2018-09-15T22:46:21.342Z,4.07
2018-09-15T22:48:47.625Z,5.20
2018-09-15T22:51:13.880Z,5.13
2018-09-15T22:53:40.166Z,5.17
2018-09-15T22:56:07.157Z,4.10
2018-09-15T22:58:33.468Z,3.90
2018-09-15T23:00:59.786Z,4.47
2018-09-15T23:03:26.077Z,4.77
2018-09-15T23:05:52.345Z,4.43
2018-09-15T23:08:19.407Z,6.23
2018-09-15T23:10:45.664Z,4.87
2018-09-15T23:13:11.907Z,5.83
2018-09-15T23:15:38.197Z,5.23
2018-09-15T23:18:04.470Z,4.43
2018-09-15T23:20:30.747Z,3.70
2018-09-15T23:22:57.037Z,4.30
2018-09-15T23:25:23.293Z,5.50
2018-09-15T23:27:49.567Z,4.43
2018-09-15T23:30:15.854Z,5.90
2018-09-15T23:32:42.849Z,5.07
2018-09-15T23:35:09.153Z,5.30
2018-09-15T23:37:35.420Z,5.07
2018-09-15T23:40:01.694Z,6.13
2018-09-15T23:42:27.972Z,5.50
2018-09-15T23:44:54.258Z,5.43
2018-09-15T23:47:20.530Z,5.33
2018-09-15T23:49:46.778Z,6.87
2018-09-15T23:52:13.049Z,6.07
2018-09-15T23:54:39.326Z,5.50
2018-09-15T23:57:05.650Z,5.77
2018-09-15T23:59:31.893Z,5.77
